sensor_id;sensor_type;location;lat;lon;timestamp;pressure;altitude;pressure_sealevel;temperature;humidity
22657;BME280;11495;55.610;12.100;2022-09-02T00:00:45;102319.72;;;9.41;0.00
22657;BME280;11495;55.610;12.100;2022-09-02T00:03:11;102302.59;;;9.46;0.00
22657;BME280;11495;55.610;12.100;2022-09-02T00:05:37;102291.13;;;9.49;0.00
22657;BME280;11495;55.610;12.100;2022-09-02T00:08:04;102283.34;;;9.46;0.00
22657;BME280;11495;55.610;12.100;2022-09-02T00:10:30;102277.25;;;9.44;0.00
22657;BME280;11495;55.610;12.100;2022-09-02T00:12:55;102280.22;;;9.42;0.00
22657;BME280;11495;55.610;12.100;2022-09-02T00:15:20;102279.03;;;9.38;0.00
22657;BME280;11495;55.610;12.100;2022-09-02T00:17:47;102271.84;;;9.37;0.00
22657;BME280;11495;55.610;12.100;2022-09-02T00:20:12;102267.31;;;9.43;0.00
22657;BME280;11495;55.610;12.100;2022-09-02T00:22:38;102260.41;;;9.40;0.00
22657;BME280;11495;55.610;12.100;2022-09-02T00:25:04;102258.97;;;9.38;0.00
22657;BME280;11495;55.610;12.100;2022-09-02T00:27:30;102251.56;;;9.38;0.00
22657;BME280;11495;55.610;12.100;2022-09-02T00:29:55;102246.91;;;9.39;0.00
22657;BME280;11495;55.610;12.100;2022-09-02T00:32:20;102244.41;;;9.37;0.00
22657;BME280;11495;55.610;12.100;2022-09-02T00:34:46;102245.22;;;9.38;0.00
22657;BME280;11495;55.610;12.100;2022-09-02T00:37:11;102235.69;;;9.40;0.00
22657;BME280;11495;55.610;12.100;2022-09-02T00:39:37;102227.84;;;9.44;0.00
22657;BME280;11495;55.610;12.100;2022-09-02T00:42:03;102235.44;;;9.42;0.00
22657;BME280;11495;55.610;12.100;2022-09-02T00:44:28;102222.78;;;9.41;0.00
22657;BME280;11495;55.610;12.100;2022-09-02T00:46:54;102228.53;;;9.39;0.00
22657;BME280;11495;55.610;12.100;2022-09-02T00:49:24;102224.94;;;9.39;0.00
22657;BME280;11495;55.610;12.100;2022-09-02T00:51:56;102222.44;;;9.37;0.00
22657;BME280;11495;55.610;12.100;2022-09-02T00:54:25;102227.94;;;9.37;0.00
22657;BME280;11495;55.610;12.100;2022-09-02T00:56:51;102215.63;;;9.40;0.00
22657;BME280;11495;55.610;12.100;2022-09-02T00:59:40;102200.47;;;9.37;0.00
22657;BME280;11495;55.610;12.100;2022-09-02T01:02:07;102208.31;;;9.34;0.00
22657;BME280;11495;55.610;12.100;2022-09-02T01:04:34;102215.59;;;9.28;0.00
22657;BME280;11495;55.610;12.100;2022-09-02T01:06:59;102215.22;;;9.24;0.00
22657;BME280;11495;55.610;12.100;2022-09-02T01:09:24;102219.75;;;9.19;0.00
22657;BME280;11495;55.610;12.100;2022-09-02T01:11:50;102217.31;;;9.11;0.00
22657;BME280;11495;55.610;12.100;2022-09-02T01:14:19;102219.91;;;9.06;0.00
22657;BME280;11495;55.610;12.100;2022-09-02T01:16:49;102223.94;;;9.03;0.00
22657;BME280;11495;55.610;12.100;2022-09-02T01:19:19;102216.56;;;9.04;0.00
22657;BME280;11495;55.610;12.100;2022-09-02T01:21:56;102209.91;;;9.11;0.00
22657;BME280;11495;55.610;12.100;2022-09-02T01:24:25;102195.72;;;9.14;0.00
22657;BME280;11495;55.610;12.100;2022-09-02T01:26:53;102204.78;;;9.15;0.00
22657;BME280;11495;55.610;12.100;2022-09-02T01:29:19;102197.78;;;9.19;0.00
22657;BME280;11495;55.610;12.100;2022-09-02T01:31:44;102199.66;;;9.18;0.00
22657;BME280;11495;55.610;12.100;2022-09-02T01:34:10;102195.25;;;9.17;0.00
22657;BME280;11495;55.610;12.100;2022-09-02T01:36:37;102188.06;;;9.16;0.00
22657;BME280;11495;55.610;12.100;2022-09-02T01:39:03;102182.59;;;9.16;0.00
22657;BME280;11495;55.610;12.100;2022-09-02T01:41:28;102177.09;;;9.16;0.00
22657;BME280;11495;55.610;12.100;2022-09-02T01:43:54;102177.09;;;9.16;0.00
22657;BME280;11495;55.610;12.100;2022-09-02T01:46:21;102174.12;;;9.18;0.00
22657;BME280;11495;55.610;12.100;2022-09-02T01:48:48;102168.28;;;9.14;0.00
22657;BME280;11495;55.610;12.100;2022-09-02T01:51:19;102167.66;;;9.12;0.00
22657;BME280;11495;55.610;12.100;2022-09-02T01:53:46;102166.59;;;9.13;0.00
22657;BME280;11495;55.610;12.100;2022-09-02T01:56:12;102161.34;;;9.12;0.00
22657;BME280;11495;55.610;12.100;2022-09-02T01:58:38;102156.44;;;9.14;0.00
22657;BME280;11495;55.610;12.100;2022-09-02T02:01:04;102153.47;;;9.15;0.00
22657;BME280;11495;55.610;12.100;2022-09-02T02:03:30;102146.91;;;9.16;0.00
22657;BME280;11495;55.610;12.100;2022-09-02T02:05:56;102135.09;;;9.16;0.00
22657;BME280;11495;55.610;12.100;2022-09-02T02:08:22;102137.00;;;9.15;0.00
22657;BME280;11495;55.610;12.100;2022-09-02T02:10:48;102135.81;;;9.11;0.00
22657;BME280;11495;55.610;12.100;2022-09-02T02:13:14;102130.41;;;9.05;0.00
22657;BME280;11495;55.610;12.100;2022-09-02T02:15:41;102135.97;;;8.98;0.00
22657;BME280;11495;55.610;12.100;2022-09-02T02:18:08;102133.19;;;8.86;0.00
22657;BME280;11495;55.610;12.100;2022-09-02T02:20:34;102141.97;;;8.77;0.00
22657;BME280;11495;55.610;12.100;2022-09-02T02:22:59;102151.72;;;8.72;0.00
22657;BME280;11495;55.610;12.100;2022-09-02T02:25:25;102154.72;;;8.71;0.00
22657;BME280;11495;55.610;12.100;2022-09-02T02:27:51;102150.06;;;8.71;0.00
22657;BME280;11495;55.610;12.100;2022-09-02T02:30:17;102149.00;;;8.72;0.00
22657;BME280;11495;55.610;12.100;2022-09-02T02:32:44;102149.47;;;8.69;0.00
22657;BME280;11495;55.610;12.100;2022-09-02T02:35:15;102150.38;;;8.63;0.00
22657;BME280;11495;55.610;12.100;2022-09-02T02:37:42;102146.03;;;8.56;0.00
22657;BME280;11495;55.610;12.100;2022-09-02T02:40:08;102150.53;;;8.50;0.00
22657;BME280;11495;55.610;12.100;2022-09-02T02:42:36;102147.66;;;8.45;0.00
22657;BME280;11495;55.610;12.100;2022-09-02T02:45:03;102150.22;;;8.40;0.00
22657;BME280;11495;55.610;12.100;2022-09-02T02:47:36;102154.91;;;8.33;0.00
22657;BME280;11495;55.610;12.100;2022-09-02T02:50:03;102153.22;;;8.32;0.00
22657;BME280;11495;55.610;12.100;2022-09-02T02:52:29;102143.94;;;8.33;0.00
22657;BME280;11495;55.610;12.100;2022-09-02T02:54:54;102151.94;;;8.34;0.00
22657;BME280;11495;55.610;12.100;2022-09-02T02:57:19;102147.75;;;8.32;0.00
22657;BME280;11495;55.610;12.100;2022-09-02T02:59:45;102144.41;;;8.30;0.00
22657;BME280;11495;55.610;12.100;2022-09-02T03:02:10;102145.47;;;8.29;0.00
22657;BME280;11495;55.610;12.100;2022-09-02T03:04:37;102141.06;;;8.28;0.00
22657;BME280;11495;55.610;12.100;2022-09-02T03:07:04;102143.81;;;8.28;0.00
22657;BME280;11495;55.610;12.100;2022-09-02T03:09:31;102144.84;;;8.27;0.00
22657;BME280;11495;55.610;12.100;2022-09-02T03:11:56;102140.28;;;8.21;0.00
22657;BME280;11495;55.610;12.100;2022-09-02T03:14:22;102137.75;;;8.19;0.00
22657;BME280;11495;55.610;12.100;2022-09-02T03:16:48;102137.97;;;8.17;0.00
22657;BME280;11495;55.610;12.100;2022-09-02T03:19:14;102141.97;;;8.22;0.00
22657;BME280;11495;55.610;12.100;2022-09-02T03:21:40;102140.66;;;8.24;0.00
22657;BME280;11495;55.610;12.100;2022-09-02T03:24:07;102130.41;;;8.20;0.00
22657;BME280;11495;55.610;12.100;2022-09-02T03:26:33;102129.41;;;8.14;0.00
22657;BME280;11495;55.610;12.100;2022-09-02T03:28:58;102134.94;;;8.07;0.00
22657;BME280;11495;55.610;12.100;2022-09-02T03:31:25;102123.81;;;8.02;0.00
22657;BME280;11495;55.610;12.100;2022-09-02T03:33:51;102122.75;;;8.03;0.00
22657;BME280;11495;55.610;12.100;2022-09-02T03:36:28;102120.63;;;8.05;0.00
22657;BME280;11495;55.610;12.100;2022-09-02T03:38:54;102122.13;;;8.01;0.00
22657;BME280;11495;55.610;12.100;2022-09-02T03:41:20;102120.16;;;7.90;0.00
22657;BME280;11495;55.610;12.100;2022-09-02T03:43:46;102117.47;;;7.83;0.00
22657;BME280;11495;55.610;12.100;2022-09-02T03:46:12;102118.53;;;7.82;0.00
22657;BME280;11495;55.610;12.100;2022-09-02T03:48:38;102114.91;;;7.88;0.00
22657;BME280;11495;55.610;12.100;2022-09-02T03:51:05;102106.16;;;7.98;0.00
22657;BME280;11495;55.610;12.100;2022-09-02T03:53:30;102110.97;;;8.03;0.00
22657;BME280;11495;55.610;12.100;2022-09-02T03:55:56;102105.09;;;7.99;0.00
22657;BME280;11495;55.610;12.100;2022-09-02T03:58:21;102104.53;;;7.91;0.00
22657;BME280;11495;55.610;12.100;2022-09-02T04:00:52;102105.66;;;7.83;0.00
22657;BME280;11495;55.610;12.100;2022-09-02T04:03:18;102109.09;;;7.78;0.00
22657;BME280;11495;55.610;12.100;2022-09-02T04:05:46;102113.81;;;7.71;0.00
22657;BME280;11495;55.610;12.100;2022-09-02T04:08:12;102117.06;;;7.62;0.00
22657;BME280;11495;55.610;12.100;2022-09-02T04:10:37;102119.78;;;7.62;0.00
22657;BME280;11495;55.610;12.100;2022-09-02T04:13:02;102110.44;;;7.69;0.00
22657;BME280;11495;55.610;12.100;2022-09-02T04:15:30;102103.22;;;7.75;0.00
22657;BME280;11495;55.610;12.100;2022-09-02T04:17:55;102099.81;;;7.79;0.00
22657;BME280;11495;55.610;12.100;2022-09-02T04:20:21;102106.12;;;7.80;0.00
22657;BME280;11495;55.610;12.100;2022-09-02T04:22:47;102103.16;;;7.81;0.00
22657;BME280;11495;55.610;12.100;2022-09-02T04:25:12;102099.53;;;7.87;0.00
22657;BME280;11495;55.610;12.100;2022-09-02T04:27:38;102092.28;;;7.93;0.00
22657;BME280;11495;55.610;12.100;2022-09-02T04:30:04;102089.50;;;8.00;0.00
22657;BME280;11495;55.610;12.100;2022-09-02T04:32:30;102084.56;;;8.08;0.00
22657;BME280;11495;55.610;12.100;2022-09-02T04:34:55;102075.78;;;8.18;0.00
22657;BME280;11495;55.610;12.100;2022-09-02T04:37:21;102069.88;;;8.21;0.00
22657;BME280;11495;55.610;12.100;2022-09-02T04:39:46;102068.81;;;8.22;0.00
22657;BME280;11495;55.610;12.100;2022-09-02T04:42:12;102071.78;;;8.21;0.00
22657;BME280;11495;55.610;12.100;2022-09-02T04:44:38;102062.72;;;8.20;0.00
22657;BME280;11495;55.610;12.100;2022-09-02T04:47:03;102062.09;;;8.18;0.00
22657;BME280;11495;55.610;12.100;2022-09-02T04:49:29;102057.91;;;8.15;0.00
22657;BME280;11495;55.610;12.100;2022-09-02T04:51:56;102052.19;;;8.17;0.00
22657;BME280;11495;55.610;12.100;2022-09-02T04:54:22;102045.44;;;8.20;0.00
22657;BME280;11495;55.610;12.100;2022-09-02T04:56:48;102038.06;;;8.20;0.00
22657;BME280;11495;55.610;12.100;2022-09-02T04:59:13;102036.16;;;8.21;0.00
22657;BME280;11495;55.610;12.100;2022-09-02T05:01:39;102024.94;;;8.22;0.00
22657;BME280;11495;55.610;12.100;2022-09-02T05:04:06;102016.84;;;8.27;0.00
22657;BME280;11495;55.610;12.100;2022-09-02T05:06:34;102019.72;;;8.39;0.00
22657;BME280;11495;55.610;12.100;2022-09-02T05:09:00;102016.69;;;8.59;0.00
22657;BME280;11495;55.610;12.100;2022-09-02T05:11:28;101996.37;;;8.78;0.00
22657;BME280;11495;55.610;12.100;2022-09-02T05:13:57;101988.50;;;8.93;0.00
22657;BME280;11495;55.610;12.100;2022-09-02T05:16:26;101981.38;;;9.04;0.00
22657;BME280;11495;55.610;12.100;2022-09-02T05:18:52;101974.47;;;9.13;0.00
22657;BME280;11495;55.610;12.100;2022-09-02T05:21:19;101962.56;;;9.19;0.00
22657;BME280;11495;55.610;12.100;2022-09-02T05:23:44;101955.87;;;9.27;0.00
22657;BME280;11495;55.610;12.100;2022-09-02T05:26:11;101955.63;;;9.40;0.00
22657;BME280;11495;55.610;12.100;2022-09-02T05:28:38;101947.59;;;9.50;0.00
22657;BME280;11495;55.610;12.100;2022-09-02T05:31:12;101936.50;;;9.57;0.00
22657;BME280;11495;55.610;12.100;2022-09-02T05:33:39;101934.22;;;9.66;0.00
22657;BME280;11495;55.610;12.100;2022-09-02T05:36:24;101929.78;;;9.76;0.00
22657;BME280;11495;55.610;12.100;2022-09-02T05:38:49;101923.16;;;9.89;0.00
22657;BME280;11495;55.610;12.100;2022-09-02T05:41:21;101919.31;;;10.02;0.00
22657;BME280;11495;55.610;12.100;2022-09-02T05:43:52;101920.41;;;10.18;0.00
22657;BME280;11495;55.610;12.100;2022-09-02T05:46:20;101906.16;;;10.32;0.00
22657;BME280;11495;55.610;12.100;2022-09-02T05:48:47;101907.69;;;10.40;0.00
22657;BME280;11495;55.610;12.100;2022-09-02T05:51:41;101901.91;;;10.41;0.00
22657;BME280;11495;55.610;12.100;2022-09-02T05:54:18;101900.38;;;10.46;0.00
22657;BME280;11495;55.610;12.100;2022-09-02T05:56:49;101896.62;;;10.52;0.00
22657;BME280;11495;55.610;12.100;2022-09-02T05:59:15;101896.78;;;10.62;0.00
22657;BME280;11495;55.610;12.100;2022-09-02T06:01:41;101895.63;;;10.75;0.00
22657;BME280;11495;55.610;12.100;2022-09-02T06:04:07;101887.87;;;10.88;0.00
22657;BME280;11495;55.610;12.100;2022-09-02T06:06:33;101878.25;;;11.08;0.00
22657;BME280;11495;55.610;12.100;2022-09-02T06:09:00;101884.75;;;11.40;0.00
22657;BME280;11495;55.610;12.100;2022-09-02T06:11:26;101867.44;;;11.84;0.00
22657;BME280;11495;55.610;12.100;2022-09-02T06:13:53;101858.19;;;12.22;0.00
22657;BME280;11495;55.610;12.100;2022-09-02T06:16:21;101849.84;;;12.76;0.00
22657;BME280;11495;55.610;12.100;2022-09-02T06:18:48;101842.41;;;13.24;0.00
22657;BME280;11495;55.610;12.100;2022-09-02T06:21:14;101838.75;;;13.65;0.00
22657;BME280;11495;55.610;12.100;2022-09-02T06:23:40;101822.78;;;13.83;0.00
22657;BME280;11495;55.610;12.100;2022-09-02T06:26:07;101829.19;;;14.14;0.00
22657;BME280;11495;55.610;12.100;2022-09-02T06:28:34;101826.16;;;14.20;0.00
22657;BME280;11495;55.610;12.100;2022-09-02T06:31:12;101822.31;;;14.31;0.00
22657;BME280;11495;55.610;12.100;2022-09-02T06:33:39;101820.09;;;14.59;0.00
22657;BME280;11495;55.610;12.100;2022-09-02T06:36:07;101826.72;;;14.83;0.00
22657;BME280;11495;55.610;12.100;2022-09-02T06:38:36;101822.25;;;15.03;0.00
22657;BME280;11495;55.610;12.100;2022-09-02T06:41:02;101823.59;;;15.21;0.00
22657;BME280;11495;55.610;12.100;2022-09-02T06:43:27;101822.88;;;15.59;0.00
22657;BME280;11495;55.610;12.100;2022-09-02T06:45:53;101834.41;;;15.92;0.00
22657;BME280;11495;55.610;12.100;2022-09-02T06:48:18;101842.31;;;16.14;0.00
22657;BME280;11495;55.610;12.100;2022-09-02T06:50:45;101867.37;;;16.38;0.00
22657;BME280;11495;55.610;12.100;2022-09-02T06:53:11;101903.00;;;16.70;0.00
22657;BME280;11495;55.610;12.100;2022-09-02T06:55:39;101959.25;;;16.91;0.00
22657;BME280;11495;55.610;12.100;2022-09-02T06:58:05;102021.56;;;17.19;0.00
22657;BME280;11495;55.610;12.100;2022-09-02T07:00:31;102116.69;;;17.16;0.00
22657;BME280;11495;55.610;12.100;2022-09-02T07:02:57;102214.44;;;17.38;0.00
22657;BME280;11495;55.610;12.100;2022-09-02T07:05:42;102447.19;;;17.58;0.00
22657;BME280;11495;55.610;12.100;2022-09-02T07:08:10;102948.50;;;17.82;0.00
22657;BME280;11495;55.610;12.100;2022-09-02T07:10:39;103541.66;;;18.14;0.00
22657;BME280;11495;55.610;12.100;2022-09-02T07:13:06;104177.25;;;18.29;0.00
22657;BME280;11495;55.610;12.100;2022-09-02T07:15:32;104503.25;;;18.47;0.00
22657;BME280;11495;55.610;12.100;2022-09-02T07:17:58;104615.78;;;18.83;0.00
22657;BME280;11495;55.610;12.100;2022-09-02T07:20:26;104436.37;;;19.06;0.00
22657;BME280;11495;55.610;12.100;2022-09-02T07:22:51;104025.66;;;19.09;0.00
22657;BME280;11495;55.610;12.100;2022-09-02T07:25:17;103620.97;;;18.99;0.00
22657;BME280;11495;55.610;12.100;2022-09-02T07:27:43;103458.72;;;19.12;0.00
22657;BME280;11495;55.610;12.100;2022-09-02T07:30:11;103366.16;;;19.35;0.00
22657;BME280;11495;55.610;12.100;2022-09-02T07:32:36;103204.56;;;19.24;0.00
22657;BME280;11495;55.610;12.100;2022-09-02T07:35:03;103102.72;;;19.36;0.00
22657;BME280;11495;55.610;12.100;2022-09-02T07:37:30;103052.75;;;19.40;0.00
22657;BME280;11495;55.610;12.100;2022-09-02T07:39:56;103028.16;;;19.47;0.00
22657;BME280;11495;55.610;12.100;2022-09-02T07:42:21;103056.66;;;19.64;0.00
22657;BME280;11495;55.610;12.100;2022-09-02T07:44:46;102995.13;;;19.95;0.00
22657;BME280;11495;55.610;12.100;2022-09-02T07:47:12;102856.09;;;20.21;0.00
22657;BME280;11495;55.610;12.100;2022-09-02T07:49:37;102417.28;;;20.26;0.00
22657;BME280;11495;55.610;12.100;2022-09-02T07:52:03;101098.88;;;20.33;0.00
22657;BME280;11495;55.610;12.100;2022-09-02T07:54:28;100647.50;;;19.99;0.00
22657;BME280;11495;55.610;12.100;2022-09-02T07:56:56;100514.84;;;19.81;0.00
22657;BME280;11495;55.610;12.100;2022-09-02T07:59:22;100402.97;;;19.74;0.00
22657;BME280;11495;55.610;12.100;2022-09-02T08:01:49;100197.69;;;20.01;0.00
22657;BME280;11495;55.610;12.100;2022-09-02T08:04:17;99994.63;;;19.98;0.00
22657;BME280;11495;55.610;12.100;2022-09-02T08:06:43;100094.56;;;20.36;0.00
22657;BME280;11495;55.610;12.100;2022-09-02T08:09:10;100236.44;;;20.58;0.00
22657;BME280;11495;55.610;12.100;2022-09-02T08:11:37;100543.06;;;20.25;0.00
22657;BME280;11495;55.610;12.100;2022-09-02T08:14:09;100625.53;;;20.10;0.00
22657;BME280;11495;55.610;12.100;2022-09-02T08:16:36;100643.53;;;20.33;0.00
22657;BME280;11495;55.610;12.100;2022-09-02T08:19:03;100667.31;;;20.52;0.00
22657;BME280;11495;55.610;12.100;2022-09-02T08:21:28;100770.59;;;20.48;0.00
22657;BME280;11495;55.610;12.100;2022-09-02T08:23:54;100931.41;;;20.37;0.00
22657;BME280;11495;55.610;12.100;2022-09-02T08:26:19;100950.38;;;20.73;0.00
22657;BME280;11495;55.610;12.100;2022-09-02T08:28:45;101197.78;;;20.96;0.00
22657;BME280;11495;55.610;12.100;2022-09-02T08:31:11;101344.53;;;20.90;0.00
22657;BME280;11495;55.610;12.100;2022-09-02T08:33:36;101410.97;;;20.85;0.00
22657;BME280;11495;55.610;12.100;2022-09-02T08:36:06;101446.03;;;20.65;0.00
22657;BME280;11495;55.610;12.100;2022-09-02T08:38:34;101478.28;;;20.71;0.00
22657;BME280;11495;55.610;12.100;2022-09-02T08:40:59;101506.56;;;21.30;0.00
22657;BME280;11495;55.610;12.100;2022-09-02T08:43:34;101589.50;;;21.69;0.00
22657;BME280;11495;55.610;12.100;2022-09-02T08:46:05;101672.19;;;21.67;0.00
22657;BME280;11495;55.610;12.100;2022-09-02T08:48:51;101703.50;;;22.12;0.00
22657;BME280;11495;55.610;12.100;2022-09-02T08:51:24;101707.38;;;22.92;0.00
22657;BME280;11495;55.610;12.100;2022-09-02T08:53:59;101755.72;;;21.91;0.00
22657;BME280;11495;55.610;12.100;2022-09-02T08:56:27;101757.19;;;21.79;0.00
22657;BME280;11495;55.610;12.100;2022-09-02T08:58:53;101756.25;;;22.19;0.00
22657;BME280;11495;55.610;12.100;2022-09-02T09:09:03;101783.69;;;23.15;0.00
22657;BME280;11495;55.610;12.100;2022-09-02T09:12:06;101775.78;;;23.17;0.00
22657;BME280;11495;55.610;12.100;2022-09-02T09:19:52;101759.88;;;23.21;0.00
22657;BME280;11495;55.610;12.100;2022-09-02T09:22:21;101776.72;;;23.80;0.00
22657;BME280;11495;55.610;12.100;2022-09-02T09:24:50;101776.84;;;22.95;0.00
22657;BME280;11495;55.610;12.100;2022-09-02T09:27:18;101783.88;;;22.46;0.00
22657;BME280;11495;55.610;12.100;2022-09-02T09:29:44;101781.72;;;21.82;0.00
22657;BME280;11495;55.610;12.100;2022-09-02T09:32:24;101776.84;;;22.14;0.00
22657;BME280;11495;55.610;12.100;2022-09-02T09:39:58;101763.84;;;24.00;0.00
22657;BME280;11495;55.610;12.100;2022-09-02T09:42:31;101766.69;;;24.67;0.00
22657;BME280;11495;55.610;12.100;2022-09-02T09:44:57;101784.03;;;24.35;0.00
22657;BME280;11495;55.610;12.100;2022-09-02T09:47:23;101773.81;;;24.64;0.00
22657;BME280;11495;55.610;12.100;2022-09-02T09:50:12;101772.25;;;24.54;0.00
22657;BME280;11495;55.610;12.100;2022-09-02T09:52:40;101767.34;;;25.33;0.00
22657;BME280;11495;55.610;12.100;2022-09-02T09:55:19;101770.34;;;25.65;0.00
22657;BME280;11495;55.610;12.100;2022-09-02T09:57:47;101780.94;;;26.48;0.00
22657;BME280;11495;55.610;12.100;2022-09-02T10:00:20;101782.81;;;25.52;0.00
22657;BME280;11495;55.610;12.100;2022-09-02T10:02:49;101787.38;;;24.29;0.00
22657;BME280;11495;55.610;12.100;2022-09-02T10:05:27;101785.53;;;23.91;0.00
22657;BME280;11495;55.610;12.100;2022-09-02T10:07:59;101797.22;;;22.49;0.00
22657;BME280;11495;55.610;12.100;2022-09-02T10:10:27;101773.09;;;22.65;0.00
22657;BME280;11495;55.610;12.100;2022-09-02T10:12:57;101766.38;;;22.49;0.00
22657;BME280;11495;55.610;12.100;2022-09-02T10:18:31;101762.00;;;22.95;0.00
22657;BME280;11495;55.610;12.100;2022-09-02T10:23:50;101772.03;;;24.05;0.00
22657;BME280;11495;55.610;12.100;2022-09-02T10:31:49;101768.69;;;24.12;0.00
22657;BME280;11495;55.610;12.100;2022-09-02T10:34:32;101775.19;;;23.83;0.00
22657;BME280;11495;55.610;12.100;2022-09-02T10:37:16;101771.09;;;23.80;0.00
22657;BME280;11495;55.610;12.100;2022-09-02T10:43:17;101755.50;;;23.33;0.00
22657;BME280;11495;55.610;12.100;2022-09-02T10:45:41;101768.06;;;23.35;0.00
22657;BME280;11495;55.610;12.100;2022-09-02T10:53:58;101754.19;;;23.09;0.00
22657;BME280;11495;55.610;12.100;2022-09-02T10:56:33;101762.47;;;23.56;0.00
22657;BME280;11495;55.610;12.100;2022-09-02T10:59:07;101762.53;;;24.52;0.00
22657;BME280;11495;55.610;12.100;2022-09-02T11:01:45;101767.06;;;23.69;0.00
22657;BME280;11495;55.610;12.100;2022-09-02T11:04:20;101749.25;;;24.40;0.00
22657;BME280;11495;55.610;12.100;2022-09-02T11:06:50;101758.94;;;24.76;0.00
22657;BME280;11495;55.610;12.100;2022-09-02T11:11:56;101762.53;;;25.09;0.00
22657;BME280;11495;55.610;12.100;2022-09-02T11:14:39;101761.25;;;24.61;0.00
22657;BME280;11495;55.610;12.100;2022-09-02T11:19:50;101765.50;;;23.21;0.00
22657;BME280;11495;55.610;12.100;2022-09-02T11:25:13;101748.44;;;22.97;0.00
22657;BME280;11495;55.610;12.100;2022-09-02T11:27:57;101753.69;;;22.60;0.00
22657;BME280;11495;55.610;12.100;2022-09-02T11:30:34;101741.28;;;22.70;0.00
22657;BME280;11495;55.610;12.100;2022-09-02T11:35:38;101741.03;;;22.84;0.00
22657;BME280;11495;55.610;12.100;2022-09-02T11:46:27;101748.41;;;25.46;0.00
22657;BME280;11495;55.610;12.100;2022-09-02T11:54:46;101746.69;;;25.94;0.00
22657;BME280;11495;55.610;12.100;2022-09-02T11:57:20;101736.06;;;26.59;0.00
22657;BME280;11495;55.610;12.100;2022-09-02T12:02:35;101740.06;;;27.21;0.00
22657;BME280;11495;55.610;12.100;2022-09-02T12:07:55;101734.34;;;27.88;0.00
22657;BME280;11495;55.610;12.100;2022-09-02T12:13:07;101725.78;;;28.65;0.00
22657;BME280;11495;55.610;12.100;2022-09-02T12:15:33;101715.47;;;28.99;0.00
22657;BME280;11495;55.610;12.100;2022-09-02T12:23:08;101717.31;;;26.98;0.00
22657;BME280;11495;55.610;12.100;2022-09-02T12:25:37;101721.47;;;26.41;0.00
22657;BME280;11495;55.610;12.100;2022-09-02T12:28:14;101711.16;;;25.77;0.00
22657;BME280;11495;55.610;12.100;2022-09-02T12:33:35;101701.63;;;25.29;0.00
22657;BME280;11495;55.610;12.100;2022-09-02T12:36:02;101709.69;;;25.43;0.00
22657;BME280;11495;55.610;12.100;2022-09-02T12:38:30;101706.16;;;25.58;0.00
22657;BME280;11495;55.610;12.100;2022-09-02T12:43:53;101700.91;;;26.13;0.00
22657;BME280;11495;55.610;12.100;2022-09-02T12:46:42;101701.75;;;26.57;0.00
22657;BME280;11495;55.610;12.100;2022-09-02T12:52:07;101696.12;;;27.39;0.00
22657;BME280;11495;55.610;12.100;2022-09-02T12:54:46;101692.09;;;27.76;0.00
22657;BME280;11495;55.610;12.100;2022-09-02T12:57:14;101694.06;;;27.21;0.00
22657;BME280;11495;55.610;12.100;2022-09-02T12:59:42;101696.44;;;26.55;0.00
22657;BME280;11495;55.610;12.100;2022-09-02T13:21:30;101668.88;;;27.66;0.00
22657;BME280;11495;55.610;12.100;2022-09-02T13:26:58;101678.00;;;26.30;0.00
22657;BME280;11495;55.610;12.100;2022-09-02T13:29:34;101684.66;;;26.38;0.00
22657;BME280;11495;55.610;12.100;2022-09-02T13:32:26;101674.22;;;26.38;0.00
22657;BME280;11495;55.610;12.100;2022-09-02T13:34:55;101681.63;;;26.58;0.00
22657;BME280;11495;55.610;12.100;2022-09-02T13:37:36;101683.44;;;26.98;0.00
22657;BME280;11495;55.610;12.100;2022-09-02T13:40:16;101683.72;;;26.18;0.00
22657;BME280;11495;55.610;12.100;2022-09-02T13:42:50;101687.91;;;25.68;0.00
22657;BME280;11495;55.610;12.100;2022-09-02T13:45:42;101678.09;;;25.90;0.00
22657;BME280;11495;55.610;12.100;2022-09-02T13:48:20;101680.09;;;26.17;0.00
22657;BME280;11495;55.610;12.100;2022-09-02T13:50:51;101676.72;;;25.31;0.00
22657;BME280;11495;55.610;12.100;2022-09-02T13:53:25;101676.72;;;24.13;0.00
22657;BME280;11495;55.610;12.100;2022-09-02T13:55:57;101658.56;;;23.56;0.00
22657;BME280;11495;55.610;12.100;2022-09-02T14:01:20;101651.91;;;23.40;0.00
22657;BME280;11495;55.610;12.100;2022-09-02T14:03:47;101642.16;;;24.00;0.00
22657;BME280;11495;55.610;12.100;2022-09-02T14:06:27;101649.81;;;24.24;0.00
22657;BME280;11495;55.610;12.100;2022-09-02T14:08:59;101658.66;;;24.47;0.00
22657;BME280;11495;55.610;12.100;2022-09-02T14:11:26;101663.03;;;24.69;0.00
22657;BME280;11495;55.610;12.100;2022-09-02T14:13:53;101656.47;;;24.89;0.00
22657;BME280;11495;55.610;12.100;2022-09-02T14:16:31;101655.41;;;24.93;0.00
22657;BME280;11495;55.610;12.100;2022-09-02T14:21:36;101666.09;;;25.00;0.00
22657;BME280;11495;55.610;12.100;2022-09-02T14:24:03;101658.09;;;25.14;0.00
22657;BME280;11495;55.610;12.100;2022-09-02T14:26:35;101656.78;;;25.36;0.00
22657;BME280;11495;55.610;12.100;2022-09-02T14:29:04;101659.38;;;25.29;0.00
22657;BME280;11495;55.610;12.100;2022-09-02T14:31:30;101667.59;;;25.34;0.00
22657;BME280;11495;55.610;12.100;2022-09-02T14:33:59;101666.09;;;25.25;0.00
22657;BME280;11495;55.610;12.100;2022-09-02T14:36:35;101661.53;;;25.48;0.00
22657;BME280;11495;55.610;12.100;2022-09-02T14:39:13;101665.28;;;25.24;0.00
22657;BME280;11495;55.610;12.100;2022-09-02T14:41:48;101665.28;;;25.00;0.00
22657;BME280;11495;55.610;12.100;2022-09-02T14:44:27;101661.97;;;25.22;0.00
22657;BME280;11495;55.610;12.100;2022-09-02T14:46:58;101665.97;;;25.21;0.00
22657;BME280;11495;55.610;12.100;2022-09-02T14:51:56;101676.94;;;25.51;0.00
22657;BME280;11495;55.610;12.100;2022-09-02T14:54:53;101671.75;;;25.53;0.00
22657;BME280;11495;55.610;12.100;2022-09-02T14:57:27;101681.53;;;25.31;0.00
22657;BME280;11495;55.610;12.100;2022-09-02T14:59:55;101679.34;;;25.12;0.00